createdAt,value
2022-10-17T00:03:47.305Z,19.90
2022-10-17T00:08:49.942Z,20.03
2022-10-17T00:13:54.793Z,20.10
2022-10-17T00:18:57.200Z,18.40
2022-10-17T00:24:00.492Z,17.75
2022-10-17T00:29:02.997Z,19.00
2022-10-17T00:34:05.415Z,19.46
2022-10-17T00:39:07.792Z,19.69
2022-10-17T00:44:13.089Z,19.86
2022-10-17T00:49:15.454Z,19.09
2022-10-17T00:54:20.617Z,17.13
2022-10-17T00:59:23.687Z,17.99
2022-10-17T01:04:26.215Z,18.92
2022-10-17T01:09:28.844Z,19.28
2022-10-17T01:14:34.180Z,19.49
2022-10-17T01:19:39.505Z,19.61
2022-10-17T01:24:44.813Z,19.68
2022-10-17T01:29:52.742Z,18.61
2022-10-17T01:34:58.156Z,17.63
2022-10-17T01:40:03.461Z,18.77
2022-10-17T01:45:06.969Z,19.21
2022-10-17T01:50:15.142Z,19.29
2022-10-17T01:55:20.389Z,18.72
2022-10-17T02:00:23.681Z,16.77
2022-10-17T02:05:32.003Z,17.63
2022-10-17T02:10:41.084Z,18.47
2022-10-17T02:15:46.453Z,17.88
2022-10-17T02:20:48.809Z,16.00
2022-10-17T02:25:55.589Z,16.95
2022-10-17T02:31:00.644Z,18.04
2022-10-17T02:36:06.301Z,17.37
2022-10-17T02:41:10.970Z,15.43
2022-10-17T02:46:21.069Z,15.92
2022-10-17T02:51:29.614Z,17.24
2022-10-17T02:56:39.798Z,17.41
2022-10-17T03:01:42.381Z,15.31
2022-10-17T03:06:46.154Z,15.48
2022-10-17T03:11:48.524Z,16.49
2022-10-17T03:16:50.944Z,17.03
2022-10-17T03:21:53.540Z,16.13
2022-10-17T03:26:55.954Z,14.54
2022-10-17T03:31:58.503Z,15.80
2022-10-17T03:37:00.947Z,16.83
2022-10-17T03:42:03.405Z,16.22
2022-10-17T03:47:08.157Z,14.38
2022-10-17T03:52:13.595Z,15.18
2022-10-17T03:57:15.972Z,16.10
2022-10-17T04:02:18.378Z,16.59
2022-10-17T04:07:20.871Z,16.18
2022-10-17T04:12:23.241Z,14.16
2022-10-17T04:17:25.684Z,14.37
2022-10-17T04:22:28.391Z,15.36
2022-10-17T04:27:30.939Z,15.63
2022-10-17T04:32:36.498Z,15.92
2022-10-17T04:37:38.853Z,15.17
2022-10-17T04:42:41.271Z,13.14
2022-10-17T04:47:43.794Z,13.61
2022-10-17T04:52:46.184Z,15.21
2022-10-17T04:57:48.551Z,15.93
2022-10-17T05:02:51.100Z,15.11
2022-10-17T05:07:53.493Z,13.50
2022-10-17T05:12:55.889Z,14.59
2022-10-17T05:17:58.339Z,15.73
2022-10-17T05:23:01.023Z,15.18
2022-10-17T05:28:03.545Z,13.26
2022-10-17T05:33:05.956Z,13.57
2022-10-17T05:38:08.356Z,15.18
2022-10-17T05:43:10.780Z,15.91
2022-10-17T05:48:14.003Z,14.98
2022-10-17T05:53:20.080Z,14.05
2022-10-17T05:58:45.441Z,15.55
2022-10-17T06:03:46.670Z,16.41
2022-10-17T06:08:49.193Z,16.38
2022-10-17T06:13:51.599Z,14.41
2022-10-17T06:18:54.020Z,15.18
2022-10-17T06:23:56.474Z,16.81
2022-10-17T06:28:58.950Z,16.14
2022-10-17T06:34:01.409Z,14.78
2022-10-17T06:39:03.903Z,14.92
2022-10-17T06:44:10.920Z,16.95
2022-10-17T06:49:13.428Z,18.03
2022-10-17T06:54:15.835Z,17.08
2022-10-17T06:59:18.277Z,16.24
2022-10-17T07:04:20.686Z,18.12
2022-10-17T07:09:24.157Z,19.67
2022-10-17T07:14:31.891Z,19.18
2022-10-17T07:19:34.366Z,17.61
2022-10-17T07:24:37.055Z,18.03
2022-10-17T07:29:39.505Z,19.79
2022-10-17T07:34:41.960Z,20.10
2022-10-17T07:39:44.328Z,18.59
2022-10-17T07:44:47.521Z,17.91
2022-10-17T07:49:50.090Z,19.61
2022-10-17T07:54:52.574Z,20.98
2022-10-17T07:59:55.131Z,20.41
2022-10-17T08:04:57.562Z,18.89
2022-10-17T08:10:01.254Z,18.20
2022-10-17T08:15:05.326Z,19.73
2022-10-17T08:20:08.832Z,21.07
2022-10-17T08:25:12.068Z,20.41
2022-10-17T08:30:15.409Z,19.26
2022-10-17T08:35:18.009Z,19.07
2022-10-17T08:40:25.963Z,21.20
2022-10-17T08:45:35.659Z,22.28
2022-10-17T08:50:42.430Z,20.92
2022-10-17T08:55:48.791Z,19.76
2022-10-17T09:00:59.812Z,19.05
2022-10-17T09:06:11.017Z,20.66
2022-10-17T09:11:20.272Z,22.31
2022-10-17T09:16:25.958Z,22.14
2022-10-17T09:21:35.530Z,21.04
2022-10-17T09:26:39.421Z,20.54
2022-10-17T09:31:45.609Z,20.28
2022-10-17T09:36:49.145Z,21.56
2022-10-17T09:41:53.295Z,22.80
2022-10-17T09:47:01.388Z,21.61
2022-10-17T09:52:05.375Z,20.82
2022-10-17T09:57:08.866Z,20.52
2022-10-17T10:02:12.209Z,20.38
2022-10-17T10:07:14.610Z,20.36
2022-10-17T10:12:18.684Z,20.38
2022-10-17T10:17:24.027Z,20.32
2022-10-17T10:22:26.523Z,21.35
2022-10-17T10:27:29.492Z,23.38
2022-10-17T10:32:33.748Z,22.77
2022-10-17T10:37:37.085Z,21.93
2022-10-17T10:42:40.307Z,21.54
2022-10-17T10:47:45.739Z,21.33
2022-10-17T10:52:55.173Z,21.24
2022-10-17T10:57:59.958Z,21.19
2022-10-17T11:03:07.549Z,21.17
2022-10-17T11:08:18.275Z,22.19
2022-10-17T11:13:23.654Z,24.29
2022-10-17T11:18:28.943Z,23.67
2022-10-17T11:23:38.487Z,22.94
2022-10-17T11:28:41.333Z,22.68
2022-10-17T11:33:46.081Z,22.55
2022-10-17T11:38:53.299Z,22.42
2022-10-17T11:43:59.581Z,22.40
2022-10-17T11:49:06.483Z,23.17
2022-10-17T11:54:13.723Z,24.85
2022-10-17T11:59:19.112Z,24.15
2022-10-17T12:04:22.713Z,23.60
2022-10-17T12:09:28.112Z,24.35
2022-10-17T12:14:33.470Z,25.17
2022-10-17T12:19:37.340Z,24.39
2022-10-17T12:24:42.661Z,23.99
2022-10-17T12:29:45.189Z,23.73
2022-10-17T12:34:50.551Z,23.48
2022-10-17T12:39:53.074Z,23.44
2022-10-17T12:44:55.486Z,23.60
2022-10-17T12:49:57.909Z,23.84
2022-10-17T12:55:14.958Z,23.87
2022-10-17T13:00:18.334Z,23.76
2022-10-17T13:05:23.696Z,23.59
2022-10-17T13:10:28.442Z,23.48
2022-10-17T13:15:31.092Z,23.28
2022-10-17T13:20:33.586Z,23.06
2022-10-17T13:25:38.905Z,22.85
2022-10-17T13:30:45.585Z,23.39
2022-10-17T13:36:00.010Z,25.33
2022-10-17T13:41:30.099Z,25.11
2022-10-17T13:46:37.406Z,23.90
2022-10-17T13:51:44.917Z,23.28
2022-10-17T14:01:57.663Z,22.53
2022-10-17T14:07:00.049Z,22.31
2022-10-17T14:12:16.528Z,22.59
2022-10-17T14:17:23.647Z,25.19
2022-10-17T14:22:27.469Z,25.73
2022-10-17T14:27:31.844Z,24.87
2022-10-17T14:32:36.094Z,24.31
2022-10-17T14:37:43.857Z,23.61
2022-10-17T14:42:46.869Z,22.90
2022-10-17T14:47:51.634Z,22.26
2022-10-17T14:52:57.109Z,22.32
2022-10-17T14:57:59.589Z,24.09
2022-10-17T15:03:02.047Z,24.57
2022-10-17T15:08:05.865Z,23.15
2022-10-17T15:13:27.211Z,22.06
2022-10-17T15:18:29.857Z,21.65
2022-10-17T15:23:32.333Z,23.21
2022-10-17T15:28:34.822Z,23.98
2022-10-17T15:33:37.262Z,22.78
2022-10-17T15:38:39.730Z,21.17
2022-10-17T15:43:42.162Z,21.37
2022-10-17T15:48:45.102Z,22.77
2022-10-17T15:53:47.691Z,23.27
2022-10-17T15:58:50.809Z,22.20
2022-10-17T16:03:53.811Z,20.61
2022-10-17T16:08:56.280Z,21.51
2022-10-17T16:14:02.320Z,22.57
2022-10-17T16:19:04.777Z,22.90
2022-10-17T16:24:09.652Z,21.61
2022-10-17T16:29:12.158Z,20.17
2022-10-17T16:34:15.185Z,21.29
2022-10-17T16:39:17.760Z,22.26
2022-10-17T16:44:20.393Z,22.63
2022-10-17T16:49:22.802Z,21.36
2022-10-17T16:54:25.270Z,19.91
2022-10-17T16:59:27.942Z,20.99
2022-10-17T17:04:30.341Z,22.00
2022-10-17T17:09:32.749Z,22.43
2022-10-17T17:14:35.224Z,21.83
2022-10-17T17:19:37.665Z,20.05
2022-10-17T17:24:40.178Z,20.61
2022-10-17T17:29:42.592Z,21.75
2022-10-17T17:34:44.989Z,22.23
2022-10-17T17:39:47.427Z,22.17
2022-10-17T17:44:49.889Z,20.46
2022-10-17T17:49:52.278Z,20.20
2022-10-17T17:54:54.865Z,21.73
2022-10-17T17:59:57.340Z,22.46
2022-10-17T18:04:59.719Z,22.19
2022-10-17T18:10:02.282Z,20.49
2022-10-17T18:15:05.637Z,19.48
2022-10-17T18:20:08.438Z,20.75
2022-10-17T18:25:11.042Z,22.18
2022-10-17T18:30:14.094Z,22.27
2022-10-17T18:35:16.476Z,20.67
2022-10-17T18:40:18.867Z,20.05
2022-10-17T18:45:21.478Z,21.72
2022-10-17T18:50:24.634Z,22.43
2022-10-17T18:55:27.194Z,20.99
2022-10-17T19:00:30.546Z,19.79
2022-10-17T19:05:33.974Z,19.72
2022-10-17T19:10:37.543Z,21.58
2022-10-17T19:15:40.034Z,22.51
2022-10-17T19:20:42.482Z,21.86
2022-10-17T19:25:44.870Z,20.23
2022-10-17T19:30:47.222Z,19.89
2022-10-17T19:35:52.537Z,21.57
2022-10-17T19:40:55.047Z,22.43
2022-10-17T19:45:59.197Z,21.31
2022-10-17T19:51:01.597Z,20.49
2022-10-17T19:56:04.594Z,21.89
2022-10-17T20:01:07.038Z,22.39
2022-10-17T20:06:10.009Z,20.85
2022-10-17T20:11:13.529Z,19.58
2022-10-17T20:16:17.598Z,20.81
2022-10-17T20:21:22.559Z,22.04
2022-10-17T20:26:36.978Z,22.21
2022-10-17T20:31:41.736Z,20.47
2022-10-17T20:36:44.185Z,20.05
2022-10-17T20:41:46.897Z,21.58
2022-10-17T20:47:01.188Z,22.02
2022-10-17T20:52:06.837Z,20.45
2022-10-17T20:57:09.209Z,19.85
2022-10-17T21:02:12.435Z,21.39
2022-10-17T21:07:15.188Z,21.85
2022-10-17T21:12:26.054Z,20.28
2022-10-17T21:17:33.926Z,19.68
2022-10-17T21:22:36.331Z,20.97
2022-10-17T21:27:38.784Z,21.61
2022-10-17T21:32:55.796Z,21.52
2022-10-17T21:37:59.103Z,19.68
2022-10-17T21:43:01.448Z,20.29
2022-10-17T21:48:12.829Z,21.44
2022-10-17T21:53:15.880Z,20.59
2022-10-17T21:58:19.340Z,19.18
2022-10-17T22:03:21.706Z,20.40
2022-10-17T22:08:25.672Z,21.37
2022-10-17T22:13:28.274Z,21.06
2022-10-17T22:18:30.868Z,19.30
2022-10-17T22:23:34.206Z,20.06
2022-10-17T22:28:37.113Z,21.10
2022-10-17T22:33:39.871Z,21.04
2022-10-17T22:38:42.254Z,19.24
2022-10-17T22:43:44.649Z,19.45
2022-10-17T22:48:47.214Z,20.64
2022-10-17T22:53:49.618Z,21.21
2022-10-17T22:58:52.236Z,20.15
2022-10-17T23:03:54.679Z,18.86
2022-10-17T23:08:57.077Z,20.17
2022-10-17T23:13:59.512Z,20.95
2022-10-17T23:19:02.051Z,21.14
2022-10-17T23:24:04.680Z,19.46
2022-10-17T23:29:07.180Z,19.39
2022-10-17T23:34:09.862Z,20.59
2022-10-17T23:39:12.621Z,21.08
2022-10-17T23:44:15.052Z,20.09
2022-10-17T23:49:17.422Z,18.52
2022-10-17T23:54:19.803Z,19.73
2022-10-17T23:59:22.316Z,20.62
